Wawasan Ruby — 3EVU7 — position and weather

sailwx.info

Track history (hours):
 
Tides and Currents Weather Stations Pressure Air Temp Water Temp Dewpoint Dewpoint Depression Visibility Wind Speed Wind Dir Waves Ship Positions

Wawasan Ruby

Last reported at 2015-Mar-30 19:07 UTC. Time now 2015-Mar-30 20:00 UTC.
Position N 29°44' E 122°25'.

Length 146 m; draft 9.6 m.

Type: Tanker. MMSI: 355619000.

Date/timePositionNaut miles runAvg speedWind from/ knotsBaromVisibWave heightAir tempDewpointWater temp
2015-Mar-30 19:07N 29°44' E 122°25'0 0.1
2015-Mar-30 18:19N 29°44' E 122°25'0 0.0
2015-Mar-30 17:33N 29°44' E 122°25'  
2015-Mar-23 07:26N 01°16' E 104°12'910.2
2015-Mar-23 06:33N 01°15' E 104°03'10 9.7
2015-Mar-23 05:31N 01°12' E 103°53'7 7.3
2015-Mar-23 04:33N 01°14' E 103°47'3 0.1
2015-Mar-21 15:15N 01°16' E 103°44'1 1.6
2015-Mar-21 14:33N 01°15' E 103°44'  
Track history (hours):
 
Tides and Currents Weather Stations Pressure Air Temp Water Temp Dewpoint Dewpoint Depression Visibility Wind Speed Wind Dir Waves Ship Positions

Wawasan Ruby

Last reported at 2015-Mar-30 19:07 UTC. Time now 2015-Mar-30 20:00 UTC.
Position N 29°44' E 122°25'.

Length 146 m; draft 9.6 m.

Type: Tanker. MMSI: 355619000.

Date/timePositionNaut miles runAvg speedWind from/ knotsBaromVisibWave heightAir tempDewpointWater temp
2015-Mar-30 19:07N 29°44' E 122°25'0 0.1
2015-Mar-30 18:19N 29°44' E 122°25'0 0.0
2015-Mar-30 17:33N 29°44' E 122°25'  
2015-Mar-23 07:26N 01°16' E 104°12'910.2
2015-Mar-23 06:33N 01°15' E 104°03'10 9.7
2015-Mar-23 05:31N 01°12' E 103°53'7 7.3
2015-Mar-23 04:33N 01°14' E 103°47'3 0.1
2015-Mar-21 15:15N 01°16' E 103°44'1 1.6
2015-Mar-21 14:33N 01°15' E 103°44'  

Dump ship's entire track history